Aérodrome :
LOGIN :

S'inscrire | Disclaimer

   EN    FR    IT 

 










Légende :    VFR   VFR Marginal   IFR   IFR Intensif   IFR Très Intensif
Visi : 
Plafond : 
>= 8 km
>= 3000ft
5 à 8 km
1000 à 3000 ft
1500m à 5 km
500 à 1000 ft
800 à 1500m
200 à 500 ft
< 800m
< 200 ft
Symboles :   Orages  Brouillard  Fortes neiges  Fortes précipitations  Vent > 20 kt
SIGMETs :   Divers  Orages  Givrage  Turbulence  Onde Orograph.  Cendres Volcan.







- Altitude de l'aérodrome : 72 ft
- Code IATA : UDE


EHVK - Volkel Airbase

DERNIER METAR :
  • 220555Z AUTO 24017KT 7000 -RADZ SCT007 BKN009 BKN011 10/09 Q1006 GRN

METARs EXPIRÉS :
  • 220529Z AUTO 24017KT 4600 -RA FEW007 SCT009 BKN010 10/09 Q1006 GRN
  • 220525Z AUTO 24017KT 5000 -RA FEW007 BKN009 OVC011 10/09 Q1006 RERA REDZ GRN
  • 220455Z AUTO 24018KT 4800 DZ BKN012 OVC014 10/08 Q1007 GRN
  • 220443Z AUTO 24018KT 7000 -RA FEW010 OVC014 10/08 Q1007 GRN
  • 220436Z AUTO 24018G28KT 210V270 5000 BR FEW010 OVC015 10/08 Q1007 WHT
  • 220425Z AUTO 24018KT 9999 OVC016 11/08 Q1007 WHT
  • 220355Z AUTO 24020KT 200V260 9999 OVC016 11/08 Q1007 WHT
  • 220328Z AUTO 24020KT 200V270 9999 FEW014 OVC017 11/08 Q1007 WHT
  • 220309Z AUTO 23019G32KT 200V270 9999 BKN013 OVC016 11/08 Q1007 GRN

TAF TAF EHVK
Valide du 22 à 06h jusqu'au 22 à 18h UTC


220545Z 2206/2218 24018G28KT 9999 SCT008 OVC015
PROB40
TEMPO 2206/2212 24020G33KT 4500 -RADZ SCT006 BKN008
PROB40
TEMPO 2212/2218 FEW012 SCT015 BKN020
Pas de NOTAMs connus pour ce terrain.



MET'MAP, la Météo Aéronautique d'un coup d'oeil ! - Copyright ORBIFLY Décembre 2007 - Disclaimer

ORBIFLY MET'MAP TEAM :

Programmation & Développement : Alexandra Zaïnal
Conception & Développement : Baudouin d'Aumeries
Co-Programmation & Développement : Marc-Olivier Méhu
Soutien technique & logistique : Manuel Goepfert

Contact : metmap@orbifly.com




SOURCES & CREDITS :

   NOAA